Picayune, Mississippi
Current Conditions -  °F | °C
As of 9:53 PM on Tuesday 25 Nov 2014 (Local Time) from KASD Reporting Station
Clear Clear  
Wind Chill: 46°   Ceiling: Unl
Heat Index: 46°   Visibility: 10mi
Dew Point: 33°   Wind: 3mph
Humidity: 61%   Direction: 320°NW
Pressure: 30.21"   Gusts: NA
Location:  30.53°N, 89.68°W
Report Text: KASD 260353Z AUTO 32003KT 10SM CLR 08/01 A3021 RMK AO2 SLP230 T00780006
Loading
Personal Weather Stations






























Interactive Weather Map New forecast layout! Learn more

10-Day Weather Forecast

Advertisements
Track Severe Weather on mobile